createdAt,value
2019-04-27T00:01:55.143Z,6.20
2019-04-27T00:04:55.825Z,7.00
2019-04-27T00:07:44.381Z,6.60
2019-04-27T00:10:20.416Z,4.00
2019-04-27T00:12:50.682Z,6.40
2019-04-27T00:15:34.383Z,6.20
2019-04-27T00:18:29.181Z,4.00
2019-04-27T00:21:08.801Z,4.80
2019-04-27T00:23:38.948Z,5.60
2019-04-27T00:26:08.584Z,6.60
2019-04-27T00:28:38.197Z,4.80
2019-04-27T00:31:08.185Z,5.60
2019-04-27T00:33:38.139Z,7.80
2019-04-27T00:36:15.411Z,4.00
2019-04-27T00:39:05.261Z,6.00
2019-04-27T00:41:35.369Z,7.20
2019-04-27T00:44:06.098Z,6.00
2019-04-27T00:46:35.967Z,7.40
2019-04-27T00:49:05.540Z,4.60
2019-04-27T00:51:35.103Z,8.20
2019-04-27T00:54:04.766Z,6.00
2019-04-27T00:57:05.796Z,5.80
2019-04-27T01:00:00.772Z,4.00
2019-04-27T01:02:38.974Z,4.40
2019-04-27T01:05:15.359Z,6.60
2019-04-27T01:07:45.110Z,4.00
2019-04-27T01:10:14.751Z,7.40
2019-04-27T01:12:44.350Z,3.80
2019-04-27T01:15:14.183Z,5.20
2019-04-27T01:17:43.989Z,4.80
2019-04-27T01:20:15.363Z,3.40
2019-04-27T01:22:45.317Z,3.60
2019-04-27T01:25:15.054Z,4.00
2019-04-27T01:28:05.765Z,4.40
2019-04-27T01:30:43.457Z,5.20
2019-04-27T01:33:13.126Z,7.20
2019-04-27T01:35:42.980Z,5.20
2019-04-27T01:38:12.565Z,4.00
2019-04-27T01:40:42.182Z,5.60
2019-04-27T01:43:11.878Z,4.00
2019-04-27T01:45:41.438Z,5.20
2019-04-27T01:48:22.946Z,3.00
2019-04-27T01:50:44.121Z,5.60
2019-04-27T01:53:13.799Z,6.20
2019-04-27T01:55:43.603Z,3.00
2019-04-27T01:58:13.220Z,4.80
2019-04-27T02:01:00.957Z,4.00
2019-04-27T02:04:09.157Z,4.40
2019-04-27T02:06:39.400Z,4.00
2019-04-27T02:09:11.491Z,7.20
2019-04-27T02:11:41.159Z,2.20
2019-04-27T02:14:10.849Z,4.00
2019-04-27T02:16:40.407Z,4.00
2019-04-27T02:19:13.039Z,4.20
2019-04-27T02:21:44.342Z,6.20
2019-04-27T02:24:15.027Z,5.20
2019-04-27T02:26:46.584Z,4.80
2019-04-27T02:29:29.438Z,6.40
2019-04-27T02:32:17.118Z,4.40
2019-04-27T02:35:00.112Z,6.00
2019-04-27T02:37:30.436Z,4.40
2019-04-27T02:40:00.917Z,3.80
2019-04-27T02:42:42.281Z,3.00
2019-04-27T02:45:12.084Z,3.60
2019-04-27T02:47:42.628Z,8.20
2019-04-27T02:50:12.323Z,4.80
2019-04-27T02:52:49.992Z,5.60
2019-04-27T02:55:19.795Z,4.80
2019-04-27T02:57:53.107Z,5.60
2019-04-27T03:00:22.827Z,6.00
2019-04-27T03:03:02.102Z,6.00
2019-04-27T03:05:30.587Z,5.20
2019-04-27T03:08:00.150Z,5.60
2019-04-27T03:10:32.024Z,6.40
2019-04-27T03:13:19.831Z,5.20
2019-04-27T03:16:11.401Z,1.80
2019-04-27T03:19:13.352Z,3.60
2019-04-27T03:21:50.406Z,4.80
2019-04-27T03:24:23.029Z,5.60
2019-04-27T03:27:00.473Z,3.40
2019-04-27T03:29:30.605Z,5.60
2019-04-27T03:32:02.348Z,5.60
2019-04-27T03:34:32.530Z,4.00
2019-04-27T03:37:04.224Z,4.00
2019-04-27T03:39:33.621Z,4.00
2019-04-27T03:42:03.435Z,5.60
2019-04-27T03:44:34.571Z,6.40
2019-04-27T03:47:05.919Z,4.00
2019-04-27T03:49:38.797Z,3.00
2019-04-27T03:52:21.579Z,6.40
2019-04-27T03:54:59.781Z,6.40
2019-04-27T03:57:43.097Z,9.00
2019-04-27T04:00:19.677Z,4.40
2019-04-27T04:02:50.233Z,4.00
2019-04-27T04:05:20.382Z,3.00
2019-04-27T04:07:50.517Z,6.00
2019-04-27T04:10:20.611Z,3.00
2019-04-27T04:13:01.448Z,5.20
2019-04-27T04:15:43.603Z,4.80
2019-04-27T04:18:13.378Z,5.20
2019-04-27T04:20:45.259Z,4.00
2019-04-27T04:23:14.646Z,4.00
2019-04-27T04:25:44.093Z,4.00
2019-04-27T04:28:13.599Z,4.80
2019-04-27T04:30:43.998Z,6.00
2019-04-27T04:33:13.353Z,4.00
2019-04-27T04:35:43.086Z,5.20
2019-04-27T04:38:13.618Z,4.00
2019-04-27T04:40:51.316Z,3.80
2019-04-27T04:43:43.455Z,6.00
2019-04-27T04:46:32.551Z,5.60
2019-04-27T04:49:02.125Z,4.00
2019-04-27T04:51:32.174Z,4.80
2019-04-27T04:54:03.615Z,6.00
2019-04-27T04:56:34.007Z,4.80
2019-04-27T04:59:04.083Z,5.20
2019-04-27T05:01:36.507Z,3.40
2019-04-27T05:04:06.055Z,4.00
2019-04-27T05:06:36.115Z,4.40
2019-04-27T05:09:06.966Z,6.00
2019-04-27T05:11:36.507Z,5.60
2019-04-27T05:14:06.348Z,6.00
2019-04-27T05:16:38.947Z,4.80
2019-04-27T05:19:11.216Z,7.60
2019-04-27T05:21:40.690Z,7.00
2019-04-27T05:24:10.445Z,7.00
2019-04-27T05:26:40.408Z,7.00
2019-04-27T05:29:10.970Z,6.20
2019-04-27T05:31:40.777Z,8.80
2019-04-27T05:34:11.715Z,6.00
2019-04-27T05:36:48.385Z,12.00
2019-04-27T05:39:13.447Z,4.00
2019-04-27T05:41:44.888Z,4.40
2019-04-27T05:44:45.765Z,6.20
2019-04-27T05:47:32.067Z,6.00
2019-04-27T05:50:09.127Z,4.00
2019-04-27T05:52:41.218Z,7.00
2019-04-27T05:55:11.532Z,4.00
2019-04-27T05:57:42.580Z,6.80
2019-04-27T06:00:15.176Z,6.80
2019-04-27T06:02:44.665Z,4.00
2019-04-27T06:05:16.217Z,4.00
2019-04-27T06:07:45.812Z,6.80
2019-04-27T06:10:17.435Z,6.00
2019-04-27T06:12:48.634Z,4.00
2019-04-27T06:15:19.782Z,5.60
2019-04-27T06:17:50.327Z,6.00
2019-04-27T06:20:19.948Z,6.00
2019-04-27T06:22:50.419Z,5.80
2019-04-27T06:25:21.501Z,4.00
2019-04-27T06:27:53.325Z,6.20
2019-04-27T06:30:22.788Z,6.40
2019-04-27T06:32:52.327Z,8.60
2019-04-27T06:35:21.640Z,4.80
2019-04-27T06:37:51.663Z,6.60
2019-04-27T06:40:23.307Z,4.80
2019-04-27T06:42:59.609Z,7.40
2019-04-27T06:45:31.564Z,7.00
2019-04-27T06:48:01.080Z,4.00
2019-04-27T06:50:30.808Z,7.60
2019-04-27T06:53:00.554Z,7.00
2019-04-27T06:55:35.097Z,7.80
2019-04-27T06:58:08.961Z,5.20
2019-04-27T07:00:40.905Z,6.40
2019-04-27T07:03:10.741Z,7.00
2019-04-27T07:05:41.388Z,5.80
2019-04-27T07:08:13.077Z,6.00
2019-04-27T07:10:43.795Z,9.00
2019-04-27T07:13:13.804Z,4.40
2019-04-27T07:15:49.870Z,4.00
2019-04-27T07:18:21.495Z,7.40
2019-04-27T07:20:51.524Z,7.80
2019-04-27T07:23:23.066Z,11.80
2019-04-27T07:25:55.021Z,7.80
2019-04-27T07:28:33.482Z,9.20
2019-04-27T07:31:09.718Z,9.00
2019-04-27T07:33:51.702Z,8.80
2019-04-27T07:36:23.140Z,4.80
2019-04-27T07:38:59.823Z,3.20
2019-04-27T07:41:30.247Z,4.00
2019-04-27T07:44:17.203Z,7.40
2019-04-27T07:47:09.711Z,6.40
2019-04-27T07:49:40.288Z,8.20
2019-04-27T07:52:15.361Z,7.00
2019-04-27T07:54:44.780Z,6.00
2019-04-27T07:57:14.165Z,9.00
2019-04-27T07:59:51.644Z,5.60
2019-04-27T08:02:23.870Z,7.00
2019-04-27T08:05:00.513Z,6.40
2019-04-27T08:07:39.574Z,6.20
2019-04-27T08:10:09.701Z,6.20
2019-04-27T08:12:40.412Z,7.00
2019-04-27T08:15:09.963Z,7.00
2019-04-27T08:17:40.592Z,6.60
2019-04-27T08:20:11.656Z,3.60
2019-04-27T08:22:43.052Z,6.80
2019-04-27T08:25:12.546Z,3.00
2019-04-27T08:27:52.008Z,7.00
2019-04-27T08:30:42.429Z,41.20
2019-04-27T08:33:14.193Z,8.60
2019-04-27T08:35:45.799Z,10.40
2019-04-27T08:38:19.025Z,9.40
2019-04-27T08:40:50.707Z,10.40
2019-04-27T08:43:24.951Z,9.20
2019-04-27T08:45:58.766Z,9.80
2019-04-27T08:48:34.689Z,11.20
2019-04-27T08:50:59.918Z,13.00
2019-04-27T08:53:31.185Z,10.80
2019-04-27T08:56:04.864Z,7.80
2019-04-27T08:58:39.350Z,11.20
2019-04-27T09:01:10.382Z,8.20
2019-04-27T09:03:41.367Z,12.20
2019-04-27T09:06:16.714Z,12.80
2019-04-27T09:08:56.099Z,11.80
2019-04-27T09:11:49.260Z,10.00
2019-04-27T09:14:26.842Z,13.20
2019-04-27T09:17:21.188Z,14.00
2019-04-27T09:19:59.140Z,9.00
2019-04-27T09:22:29.504Z,15.00
2019-04-27T09:24:59.512Z,12.00
2019-04-27T09:27:39.803Z,12.00
2019-04-27T09:30:10.334Z,12.40
2019-04-27T09:32:40.966Z,12.00
2019-04-27T09:35:13.275Z,11.60
2019-04-27T09:37:48.467Z,10.20
2019-04-27T09:40:21.258Z,10.60
2019-04-27T09:42:53.693Z,10.80
2019-04-27T09:45:26.907Z,16.20
2019-04-27T09:48:00.393Z,10.00
2019-04-27T09:50:31.180Z,10.40
2019-04-27T09:53:03.279Z,8.20
2019-04-27T09:55:32.931Z,9.20
2019-04-27T09:58:12.130Z,13.80
2019-04-27T10:00:43.521Z,13.80
2019-04-27T10:03:14.303Z,13.40
2019-04-27T10:05:45.885Z,9.80
2019-04-27T10:08:16.954Z,6.40
2019-04-27T10:10:48.020Z,11.60
2019-04-27T10:13:21.573Z,7.00
2019-04-27T10:15:51.050Z,13.00
2019-04-27T10:18:24.057Z,11.60
2019-04-27T10:20:59.658Z,12.00
2019-04-27T10:23:25.283Z,9.80
2019-04-27T10:25:56.663Z,14.60
2019-04-27T10:28:37.210Z,9.80
2019-04-27T10:31:15.634Z,6.80
2019-04-27T10:33:46.789Z,2.20
2019-04-27T10:36:19.461Z,4.00
2019-04-27T10:38:49.095Z,3.00
2019-04-27T10:41:18.757Z,1.00
2019-04-27T10:43:50.982Z,4.00
2019-04-27T10:46:21.384Z,3.00
2019-04-27T10:48:53.255Z,3.40
2019-04-27T10:51:26.079Z,6.00
2019-04-27T10:53:57.405Z,2.60
2019-04-27T10:56:27.336Z,6.00
2019-04-27T10:58:58.339Z,1.40
2019-04-27T11:01:30.101Z,3.40
2019-04-27T11:04:15.816Z,3.80
2019-04-27T11:06:56.393Z,3.40
2019-04-27T11:09:32.548Z,1.00
2019-04-27T11:12:04.256Z,1.00
2019-04-27T11:14:33.966Z,4.00
2019-04-27T11:17:06.270Z,3.20
2019-04-27T11:19:36.111Z,3.00
2019-04-27T11:22:09.333Z,3.80
2019-04-27T11:24:39.771Z,1.00
2019-04-27T11:27:09.418Z,3.00
2019-04-27T11:29:39.483Z,1.40
2019-04-27T11:32:15.783Z,2.40
2019-04-27T11:35:19.781Z,3.00
2019-04-27T11:37:49.933Z,3.00
2019-04-27T11:40:19.889Z,3.00
2019-04-27T11:42:49.254Z,2.60
2019-04-27T11:45:19.224Z,6.80
2019-04-27T11:47:55.321Z,3.00
2019-04-27T11:50:27.137Z,2.20
2019-04-27T11:52:56.787Z,1.00
2019-04-27T11:55:27.378Z,1.00
2019-04-27T11:57:57.177Z,3.60
2019-04-27T12:00:27.732Z,4.40
2019-04-27T12:03:04.379Z,1.80
2019-04-27T12:05:34.018Z,3.00
2019-04-27T12:08:06.704Z,2.60
2019-04-27T12:10:40.308Z,3.00
2019-04-27T12:13:12.122Z,1.00
2019-04-27T12:15:44.229Z,1.00
2019-04-27T12:18:14.407Z,2.20
2019-04-27T12:20:45.834Z,3.00
2019-04-27T12:23:16.526Z,0.20
2019-04-27T12:25:46.334Z,3.00
2019-04-27T12:28:27.676Z,2.20
2019-04-27T12:31:16.420Z,1.00
2019-04-27T12:33:50.594Z,1.00
2019-04-27T12:36:20.314Z,1.00
2019-04-27T12:38:50.100Z,0.60
2019-04-27T12:41:19.721Z,1.00
2019-04-27T12:43:56.034Z,3.00
2019-04-27T12:46:25.581Z,3.60
2019-04-27T12:48:57.071Z,0.00
2019-04-27T12:51:31.458Z,1.00
2019-04-27T12:54:32.224Z,0.80
2019-04-27T12:57:21.099Z,2.60
2019-04-27T13:00:03.593Z,1.80
2019-04-27T13:02:33.591Z,1.00
2019-04-27T13:05:08.156Z,0.00
2019-04-27T13:07:38.194Z,1.00
2019-04-27T13:10:11.141Z,2.20
2019-04-27T13:12:41.219Z,0.00
2019-04-27T13:15:11.100Z,0.00
2019-04-27T13:17:46.211Z,0.60
2019-04-27T13:20:17.644Z,1.00
2019-04-27T13:22:48.637Z,0.60
2019-04-27T13:25:19.315Z,0.80
2019-04-27T13:27:51.102Z,1.00
2019-04-27T13:30:23.049Z,0.60
2019-04-27T13:32:53.785Z,1.00
2019-04-27T13:35:25.931Z,1.00
2019-04-27T13:37:56.067Z,3.00
2019-04-27T13:40:26.581Z,3.00
2019-04-27T13:43:07.977Z,4.00
2019-04-27T13:46:08.809Z,3.20
2019-04-27T13:48:59.804Z,4.00
2019-04-27T13:51:42.772Z,6.00
2019-04-27T13:54:23.666Z,5.40
2019-04-27T13:56:48.499Z,7.60
2019-04-27T13:59:21.765Z,3.20
2019-04-27T14:01:54.000Z,3.60
2019-04-27T14:04:24.094Z,6.00
2019-04-27T14:06:53.826Z,4.00
2019-04-27T14:09:28.200Z,6.00
2019-04-27T14:12:06.916Z,7.00
2019-04-27T14:14:39.058Z,4.00
2019-04-27T14:17:19.162Z,7.40
2019-04-27T14:19:48.836Z,4.00
2019-04-27T14:22:18.840Z,7.00
2019-04-27T14:24:48.827Z,6.00
2019-04-27T14:27:21.545Z,8.20
2019-04-27T14:29:59.473Z,6.00
2019-04-27T14:32:31.545Z,5.20
2019-04-27T14:35:02.015Z,6.00
2019-04-27T14:37:33.825Z,6.20
2019-04-27T14:40:05.467Z,4.80
2019-04-27T14:42:37.893Z,3.20
2019-04-27T14:45:09.753Z,3.60
2019-04-27T14:47:43.425Z,3.20
2019-04-27T14:50:18.711Z,3.00
2019-04-27T14:52:53.659Z,4.00
2019-04-27T14:55:32.198Z,4.00
2019-04-27T14:58:04.344Z,6.00
2019-04-27T15:00:38.468Z,1.00
2019-04-27T15:03:08.978Z,4.00
2019-04-27T15:05:49.639Z,1.00
2019-04-27T15:08:20.724Z,1.00
2019-04-27T15:10:51.575Z,3.00
2019-04-27T15:13:23.188Z,0.00
2019-04-27T15:15:54.526Z,12.20
2019-04-27T15:18:29.706Z,0.60
2019-04-27T15:21:02.714Z,1.80
2019-04-27T15:23:31.914Z,3.60
2019-04-27T15:26:01.458Z,5.60
2019-04-27T15:28:36.233Z,1.00
2019-04-27T15:31:26.900Z,3.20
2019-04-27T15:34:27.495Z,0.80
2019-04-27T15:37:07.861Z,3.00
2019-04-27T15:39:57.695Z,1.40
2019-04-27T15:42:31.428Z,1.80
2019-04-27T15:45:03.539Z,3.00
2019-04-27T15:47:38.350Z,3.00
2019-04-27T15:50:09.211Z,2.60
2019-04-27T15:52:42.367Z,4.80
2019-04-27T15:55:31.571Z,4.20
2019-04-27T15:57:47.030Z,3.00
2019-04-27T16:00:24.256Z,3.00
2019-04-27T16:02:53.982Z,3.60
2019-04-27T16:05:28.595Z,1.00
2019-04-27T16:08:01.041Z,4.40
2019-04-27T16:10:32.715Z,4.40
2019-04-27T16:13:06.906Z,4.00
2019-04-27T16:15:35.278Z,3.00
2019-04-27T16:18:05.795Z,6.00
2019-04-27T16:20:35.713Z,3.20
2019-04-27T16:25:45.278Z,2.40
2019-04-27T16:28:09.705Z,1.00
2019-04-27T16:30:36.060Z,2.60
2019-04-27T16:33:08.698Z,3.00
2019-04-27T16:35:40.406Z,3.00
2019-04-27T16:38:26.745Z,5.20
2019-04-27T16:40:59.669Z,4.40
2019-04-27T16:43:32.672Z,3.00
2019-04-27T16:46:04.369Z,1.00
2019-04-27T16:48:34.519Z,4.80
2019-04-27T16:51:04.620Z,4.80
2019-04-27T16:53:38.198Z,2.20
2019-04-27T16:56:15.103Z,1.00
2019-04-27T16:58:39.869Z,3.00
2019-04-27T17:01:13.227Z,4.80
2019-04-27T17:03:42.898Z,3.20
2019-04-27T17:06:12.434Z,2.20
2019-04-27T17:08:44.219Z,3.80
2019-04-27T17:11:15.570Z,3.20
2019-04-27T17:13:51.983Z,1.00
2019-04-27T17:16:46.393Z,4.00
2019-04-27T17:19:28.899Z,3.60
2019-04-27T17:22:05.084Z,3.20
2019-04-27T17:24:43.809Z,3.80
2019-04-27T17:27:16.302Z,3.20
2019-04-27T17:29:48.000Z,4.40
2019-04-27T17:32:35.976Z,3.00
2019-04-27T17:35:10.957Z,3.00
2019-04-27T17:37:39.469Z,3.00
2019-04-27T17:40:09.603Z,1.40
2019-04-27T17:42:39.323Z,2.60
2019-04-27T17:45:11.143Z,5.20
2019-04-27T17:47:42.811Z,4.80
2019-04-27T17:50:18.414Z,3.40
2019-04-27T17:52:48.504Z,3.40
2019-04-27T17:55:24.467Z,2.20
2019-04-27T17:57:51.746Z,1.00
2019-04-27T18:00:28.222Z,3.40
2019-04-27T18:02:58.042Z,3.20
2019-04-27T18:05:28.504Z,3.00
2019-04-27T18:08:01.552Z,2.20
2019-04-27T18:10:40.744Z,4.00
2019-04-27T18:13:10.694Z,3.00
2019-04-27T18:15:41.034Z,1.00
2019-04-27T18:18:22.789Z,4.00
2019-04-27T18:21:11.687Z,3.00
2019-04-27T18:23:45.343Z,2.20
2019-04-27T18:26:31.190Z,1.80
2019-04-27T18:29:01.715Z,3.60
2019-04-27T18:31:35.094Z,3.00
2019-04-27T18:34:08.584Z,2.60
2019-04-27T18:36:37.855Z,2.60
2019-04-27T18:39:12.454Z,2.20
2019-04-27T18:41:49.255Z,3.40
2019-04-27T18:44:12.401Z,3.60
2019-04-27T18:46:42.095Z,0.00
2019-04-27T18:49:33.846Z,1.40
2019-04-27T18:52:21.261Z,4.40
2019-04-27T18:54:51.268Z,3.20
2019-04-27T18:57:20.932Z,3.80
2019-04-27T18:59:51.043Z,1.00
2019-04-27T19:02:21.261Z,3.20
2019-04-27T19:04:51.101Z,6.00
2019-04-27T19:07:20.520Z,3.60
2019-04-27T19:09:51.065Z,2.60
2019-04-27T19:12:20.877Z,3.60
2019-04-27T19:14:54.935Z,7.40
2019-04-27T19:17:24.691Z,1.00
2019-04-27T19:19:56.143Z,2.60
2019-04-27T19:22:25.882Z,3.00
2019-04-27T19:24:56.373Z,4.40
2019-04-27T19:27:59.689Z,6.00
2019-04-27T19:30:35.588Z,3.20
2019-04-27T19:33:05.033Z,6.80
2019-04-27T19:35:34.863Z,4.00
2019-04-27T19:38:04.682Z,8.00
2019-04-27T19:40:34.223Z,7.00
2019-04-27T19:43:03.713Z,2.60
2019-04-27T19:45:38.901Z,3.60
2019-04-27T19:48:11.074Z,6.80
2019-04-27T19:50:40.939Z,7.00
2019-04-27T19:53:10.374Z,6.00
2019-04-27T19:55:40.600Z,6.60
2019-04-27T19:58:10.629Z,3.60
2019-04-27T20:01:11.149Z,4.00
2019-04-27T20:03:38.962Z,6.00
2019-04-27T20:06:08.966Z,8.00
2019-04-27T20:08:40.865Z,5.20
2019-04-27T20:11:11.485Z,4.80
2019-04-27T20:13:41.739Z,6.00
2019-04-27T20:16:11.775Z,6.20
2019-04-27T20:18:43.821Z,7.60
2019-04-27T20:21:13.476Z,3.80
2019-04-27T20:23:43.260Z,5.80
2019-04-27T20:26:12.626Z,4.00
2019-04-27T20:28:42.258Z,7.40
2019-04-27T20:31:14.841Z,4.80
2019-04-27T20:33:54.026Z,9.20
2019-04-27T20:36:23.900Z,9.40
2019-04-27T20:38:53.511Z,9.20
2019-04-27T20:41:26.458Z,9.00
2019-04-27T20:43:58.143Z,10.00
2019-04-27T20:46:28.185Z,7.00
2019-04-27T20:49:01.116Z,4.40
2019-04-27T20:51:53.378Z,11.00
2019-04-27T20:54:23.877Z,7.00
2019-04-27T20:56:58.497Z,7.00
2019-04-27T20:59:31.325Z,9.40
2019-04-27T21:02:23.820Z,13.40
2019-04-27T21:04:56.698Z,15.40
2019-04-27T21:07:44.641Z,23.60
2019-04-27T21:10:15.214Z,24.20
2019-04-27T21:12:44.723Z,18.40
2019-04-27T21:15:21.428Z,17.20
2019-04-27T21:17:55.139Z,20.60
2019-04-27T21:20:26.523Z,14.80
2019-04-27T21:22:56.465Z,9.80
2019-04-27T21:25:26.892Z,13.60
2019-04-27T21:28:14.256Z,9.80
2019-04-27T21:30:32.402Z,9.60
2019-04-27T21:33:06.259Z,10.40
2019-04-27T21:35:36.385Z,8.20
2019-04-27T21:38:06.479Z,8.80
2019-04-27T21:40:37.731Z,12.20
2019-04-27T21:43:07.480Z,10.00
2019-04-27T21:45:39.077Z,10.40
2019-04-27T21:48:10.533Z,10.00
2019-04-27T21:50:43.651Z,12.60
2019-04-27T21:53:37.471Z,6.00
2019-04-27T21:56:11.178Z,12.20
2019-04-27T21:58:42.216Z,10.80
2019-04-27T22:01:34.641Z,4.00
2019-04-27T22:04:06.108Z,3.80
2019-04-27T22:06:42.186Z,5.60
2019-04-27T22:09:13.050Z,6.80
2019-04-27T22:11:42.688Z,3.80
2019-04-27T22:14:13.330Z,3.00
2019-04-27T22:16:44.466Z,0.20
2019-04-27T22:19:14.353Z,4.00
2019-04-27T22:21:44.194Z,4.00
2019-04-27T22:24:33.683Z,6.40
2019-04-27T22:27:03.646Z,5.60
2019-04-27T22:29:40.056Z,5.00
2019-04-27T22:32:07.422Z,4.80
2019-04-27T22:34:38.055Z,6.00
2019-04-27T22:37:07.703Z,6.00
2019-04-27T22:39:52.780Z,12.00
2019-04-27T22:42:53.664Z,4.80
2019-04-27T22:45:29.706Z,5.20
2019-04-27T22:48:01.334Z,4.80
2019-04-27T22:50:33.484Z,6.20
2019-04-27T22:53:03.577Z,6.40
2019-04-27T22:55:33.072Z,7.40
2019-04-27T22:58:09.195Z,3.20
2019-04-27T23:01:02.260Z,5.60
2019-04-27T23:03:34.242Z,2.60
2019-04-27T23:06:04.154Z,4.00
2019-04-27T23:08:36.675Z,3.80
2019-04-27T23:11:06.114Z,7.40
2019-04-27T23:13:36.026Z,7.40
2019-04-27T23:16:07.634Z,5.20
2019-04-27T23:18:37.371Z,7.80
2019-04-27T23:21:06.829Z,10.20
2019-04-27T23:23:38.392Z,6.80
2019-04-27T23:26:08.045Z,6.00
2019-04-27T23:28:41.311Z,4.20
2019-04-27T23:31:24.090Z,7.80
2019-04-27T23:33:56.144Z,5.00
2019-04-27T23:36:25.731Z,4.00
2019-04-27T23:38:55.186Z,4.00
2019-04-27T23:41:24.843Z,9.00
2019-04-27T23:43:54.546Z,9.00
2019-04-27T23:46:24.617Z,9.00
2019-04-27T23:48:56.306Z,6.60
2019-04-27T23:51:47.495Z,3.20
2019-04-27T23:54:17.038Z,8.60
2019-04-27T23:56:46.636Z,6.20
2019-04-27T23:59:24.682Z,7.00
